createdAt,value
2018-06-19T00:01:21.322Z,2.50
2018-06-19T00:03:50.937Z,2.30
2018-06-19T00:06:21.015Z,2.13
2018-06-19T00:08:50.595Z,2.23
2018-06-19T00:11:20.213Z,2.60
2018-06-19T00:13:49.628Z,2.60
2018-06-19T00:16:19.132Z,2.43
2018-06-19T00:18:54.472Z,2.77
2018-06-19T00:21:58.155Z,2.67
2018-06-19T00:24:27.967Z,2.90
2018-06-19T00:26:57.329Z,2.70
2018-06-19T00:29:27.288Z,2.70
2018-06-19T00:31:56.659Z,2.70
2018-06-19T00:34:26.199Z,2.60
2018-06-19T00:36:55.915Z,2.40
2018-06-19T00:39:25.527Z,2.80
2018-06-19T00:41:55.266Z,2.70
2018-06-19T00:44:25.256Z,2.67
2018-06-19T00:46:55.668Z,2.40
2018-06-19T00:49:25.023Z,2.70
2018-06-19T00:51:54.952Z,2.40
2018-06-19T00:54:24.561Z,2.47
2018-06-19T00:56:57.186Z,2.30
2018-06-19T00:59:26.949Z,2.63
2018-06-19T01:01:57.931Z,2.53
2018-06-19T01:04:27.379Z,2.73
2018-06-19T01:06:56.780Z,2.93
2018-06-19T01:09:26.134Z,2.80
2018-06-19T01:11:55.724Z,3.00
2018-06-19T01:14:25.280Z,2.40
2018-06-19T01:16:54.626Z,2.90
2018-06-19T01:19:24.153Z,3.33
2018-06-19T01:21:53.601Z,3.30
2018-06-19T01:24:23.283Z,3.40
2018-06-19T01:26:52.858Z,3.50
2018-06-19T01:29:22.328Z,3.70
2018-06-19T01:31:51.972Z,3.63
2018-06-19T01:34:21.635Z,3.73
2018-06-19T01:36:51.534Z,3.80
2018-06-19T01:39:21.531Z,3.70
2018-06-19T01:41:51.408Z,3.90
2018-06-19T01:44:21.106Z,3.80
2018-06-19T01:46:50.876Z,4.07
2018-06-19T01:49:20.594Z,3.50
2018-06-19T01:51:50.274Z,3.53
2018-06-19T01:54:19.580Z,3.70
2018-06-19T01:56:48.983Z,3.20
2018-06-19T01:59:18.735Z,3.83
2018-06-19T02:01:48.139Z,3.80
2018-06-19T02:04:17.830Z,3.80
2018-06-19T02:06:48.125Z,3.17
2018-06-19T02:09:17.726Z,3.43
2018-06-19T02:11:47.026Z,3.40
2018-06-19T02:14:16.388Z,3.53
2018-06-19T02:16:45.589Z,3.80
2018-06-19T02:19:15.314Z,3.77
2018-06-19T02:21:44.884Z,3.87
2018-06-19T02:24:14.714Z,3.97
2018-06-19T02:26:44.838Z,3.87
2018-06-19T02:29:14.509Z,3.83
2018-06-19T02:31:43.975Z,4.03
2018-06-19T02:34:14.172Z,3.63
2018-06-19T02:36:43.830Z,3.70
2018-06-19T02:39:13.327Z,3.40
2018-06-19T02:41:42.944Z,3.77
2018-06-19T02:44:18.519Z,2.90
2018-06-19T02:46:47.943Z,3.27
2018-06-19T02:49:17.538Z,3.20
2018-06-19T02:51:47.391Z,2.97
2018-06-19T02:54:17.142Z,2.83
2018-06-19T02:56:46.542Z,3.60
2018-06-19T02:59:16.187Z,3.33
2018-06-19T03:01:45.563Z,3.33
2018-06-19T03:04:15.216Z,3.60
2018-06-19T03:06:44.957Z,3.50
2018-06-19T03:09:14.524Z,3.33
2018-06-19T03:11:44.021Z,3.70
2018-06-19T03:14:13.269Z,3.33
2018-06-19T03:16:43.054Z,3.67
2018-06-19T03:19:12.282Z,3.37
2018-06-19T03:21:41.881Z,3.60
2018-06-19T03:24:11.729Z,3.30
2018-06-19T03:26:41.463Z,3.37
2018-06-19T03:29:11.165Z,3.37
2018-06-19T03:31:41.364Z,4.10
2018-06-19T03:34:11.073Z,3.97
2018-06-19T03:36:40.851Z,3.53
2018-06-19T03:39:11.954Z,3.03
2018-06-19T03:41:44.914Z,3.07
2018-06-19T03:44:15.255Z,3.60
2018-06-19T03:46:45.044Z,3.23
2018-06-19T03:49:14.768Z,3.33
2018-06-19T03:51:44.206Z,3.03
2018-06-19T03:54:13.643Z,3.10
2018-06-19T03:56:43.020Z,3.10
2018-06-19T03:59:13.091Z,3.50
2018-06-19T04:01:42.989Z,2.67
2018-06-19T04:04:12.701Z,3.60
2018-06-19T04:06:42.201Z,3.10
2018-06-19T04:09:11.508Z,3.03
2018-06-19T04:11:40.993Z,3.47
2018-06-19T04:14:10.296Z,3.57
2018-06-19T04:16:39.572Z,3.30
2018-06-19T04:19:09.718Z,2.70
2018-06-19T04:21:39.132Z,3.33
2018-06-19T04:24:09.122Z,3.43
2018-06-19T04:26:38.419Z,3.53
2018-06-19T04:29:08.698Z,3.20
2018-06-19T04:31:38.092Z,3.43
2018-06-19T04:34:07.540Z,3.60
2018-06-19T04:36:37.046Z,3.30
2018-06-19T04:39:09.555Z,3.70
2018-06-19T04:41:39.109Z,3.87
2018-06-19T04:44:08.658Z,3.43
2018-06-19T04:46:38.126Z,3.60
2018-06-19T04:49:07.651Z,3.83
2018-06-19T04:51:36.904Z,3.47
2018-06-19T04:54:06.251Z,3.60
2018-06-19T04:56:35.678Z,3.83
2018-06-19T04:59:05.287Z,3.67
2018-06-19T05:01:34.802Z,4.23
2018-06-19T05:04:04.464Z,4.67
2018-06-19T05:06:34.126Z,4.67
2018-06-19T05:09:03.408Z,4.60
2018-06-19T05:11:33.032Z,4.47
2018-06-19T05:14:02.360Z,4.80
2018-06-19T05:16:31.917Z,4.73
2018-06-19T05:19:01.171Z,4.57
2018-06-19T05:21:30.535Z,5.37
2018-06-19T05:24:00.353Z,5.47
2018-06-19T05:26:29.935Z,5.93
2018-06-19T05:29:00.466Z,5.20
2018-06-19T05:31:30.298Z,6.53
2018-06-19T05:34:00.220Z,5.30
2018-06-19T05:36:29.553Z,6.07
2018-06-19T05:38:59.044Z,6.40
2018-06-19T05:41:29.336Z,6.20
2018-06-19T05:43:59.298Z,6.50
2018-06-19T05:46:28.603Z,6.40
2018-06-19T05:48:57.962Z,7.17
2018-06-19T05:51:27.910Z,7.73
2018-06-19T05:53:57.357Z,6.57
2018-06-19T05:56:26.842Z,7.17
2018-06-19T05:58:56.147Z,6.70
2018-06-19T06:01:26.019Z,7.40
2018-06-19T06:03:55.830Z,6.93
2018-06-19T06:06:25.470Z,7.30
2018-06-19T06:08:55.112Z,6.90
2018-06-19T06:11:24.696Z,6.57
2018-06-19T06:13:54.134Z,7.13
2018-06-19T06:16:23.847Z,8.03
2018-06-19T06:18:53.071Z,7.80
2018-06-19T06:21:22.800Z,7.20
2018-06-19T06:23:52.078Z,7.70
2018-06-19T06:26:21.668Z,8.53
2018-06-19T06:28:50.983Z,7.20
2018-06-19T06:31:20.401Z,8.57
2018-06-19T06:33:50.001Z,8.07
2018-06-19T06:36:19.795Z,8.00
2018-06-19T06:38:52.826Z,8.27
2018-06-19T06:41:22.248Z,7.67
2018-06-19T06:43:52.400Z,7.93
2018-06-19T06:46:21.716Z,8.50
2018-06-19T06:48:51.391Z,7.30
2018-06-19T06:51:21.168Z,8.50
2018-06-19T06:53:50.858Z,7.63
2018-06-19T06:56:20.242Z,8.00
2018-06-19T06:58:50.336Z,8.33
2018-06-19T07:01:20.002Z,7.60
2018-06-19T07:03:49.562Z,8.37
2018-06-19T07:06:19.206Z,8.80
2018-06-19T07:08:48.967Z,8.57
2018-06-19T07:11:18.383Z,8.50
2018-06-19T07:13:47.728Z,9.33
2018-06-19T07:16:17.003Z,8.83
2018-06-19T07:18:46.750Z,9.37
2018-06-19T07:21:16.420Z,8.50
2018-06-19T07:23:45.815Z,9.37
2018-06-19T07:26:15.476Z,10.03
2018-06-19T07:28:45.055Z,9.43
2018-06-19T07:31:14.976Z,9.57
2018-06-19T07:33:44.745Z,9.67
2018-06-19T07:36:14.347Z,10.10
2018-06-19T07:38:44.195Z,11.10
2018-06-19T07:41:17.589Z,10.57
2018-06-19T07:43:50.936Z,11.80
2018-06-19T07:46:21.306Z,10.93
2018-06-19T07:48:51.076Z,10.90
2018-06-19T07:51:20.314Z,11.23
2018-06-19T07:53:49.615Z,11.17
2018-06-19T07:56:19.002Z,11.60
2018-06-19T07:58:48.620Z,12.23
2018-06-19T08:01:17.973Z,13.20
2018-06-19T08:03:47.426Z,12.90
2018-06-19T08:06:16.944Z,11.60
2018-06-19T08:08:46.436Z,11.57
2018-06-19T08:11:15.746Z,13.13
2018-06-19T08:13:45.333Z,12.07
2018-06-19T08:16:15.104Z,12.93
2018-06-19T08:18:44.982Z,14.00
2018-06-19T08:21:14.692Z,14.50
2018-06-19T08:23:44.259Z,14.33
2018-06-19T08:26:13.637Z,15.00
2018-06-19T08:28:43.510Z,15.70
2018-06-19T08:31:12.964Z,14.47
2018-06-19T08:33:43.250Z,14.20
2018-06-19T08:36:12.752Z,15.40
2018-06-19T08:38:42.730Z,15.27
2018-06-19T08:41:12.120Z,16.07
2018-06-19T08:43:42.208Z,14.13
2018-06-19T08:46:11.805Z,15.97
2018-06-19T08:48:41.088Z,15.43
2018-06-19T08:51:10.978Z,15.97
2018-06-19T08:53:40.309Z,15.60
2018-06-19T08:56:09.588Z,16.10
2018-06-19T08:58:40.008Z,14.20
2018-06-19T09:01:09.794Z,16.60
2018-06-19T09:03:41.278Z,14.37
2018-06-19T09:06:11.004Z,15.53
2018-06-19T09:08:40.388Z,16.10
2018-06-19T09:11:09.759Z,15.20
2018-06-19T09:13:39.413Z,15.47
2018-06-19T09:16:08.829Z,15.70
2018-06-19T09:18:38.580Z,16.70
2018-06-19T09:21:08.735Z,16.70
2018-06-19T09:23:38.851Z,15.03
2018-06-19T09:26:08.436Z,16.47
2018-06-19T09:28:37.796Z,15.27
2018-06-19T09:31:08.014Z,15.17
2018-06-19T09:33:41.472Z,15.27
2018-06-19T09:36:11.358Z,15.70
2018-06-19T09:38:40.807Z,15.37
2018-06-19T09:41:10.693Z,16.47
2018-06-19T09:43:40.313Z,14.87
2018-06-19T09:46:09.786Z,16.40
2018-06-19T09:48:39.464Z,16.00
2018-06-19T09:51:12.763Z,16.73
2018-06-19T09:53:42.948Z,16.90
2018-06-19T09:56:16.565Z,16.67
2018-06-19T09:58:49.565Z,16.50
2018-06-19T10:01:18.974Z,15.33
2018-06-19T10:03:48.528Z,17.40
2018-06-19T10:06:20.484Z,16.07
2018-06-19T10:08:49.595Z,17.33
2018-06-19T10:11:19.409Z,15.23
2018-06-19T10:13:49.044Z,15.67
2018-06-19T10:16:18.750Z,16.37
2018-06-19T10:18:48.128Z,15.30
2018-06-19T10:21:17.842Z,17.87
2018-06-19T10:23:47.292Z,17.30
2018-06-19T10:26:18.807Z,17.23
2018-06-19T10:28:48.778Z,17.00
2018-06-19T10:31:18.260Z,16.57
2018-06-19T10:33:48.233Z,14.50
2018-06-19T10:36:18.012Z,15.63
2018-06-19T10:38:47.771Z,16.40
2018-06-19T10:41:17.579Z,14.97
2018-06-19T10:43:47.565Z,14.53
2018-06-19T10:46:17.420Z,16.20
2018-06-19T10:48:47.125Z,14.07
2018-06-19T10:51:16.681Z,16.43
2018-06-19T10:53:45.974Z,13.90
2018-06-19T10:56:16.228Z,15.07
2018-06-19T10:58:45.816Z,13.97
2018-06-19T11:01:15.450Z,13.67
2018-06-19T11:03:45.014Z,16.27
2018-06-19T11:06:14.428Z,15.00
2018-06-19T11:08:44.315Z,15.57
2018-06-19T11:11:14.286Z,15.53
2018-06-19T11:13:43.499Z,16.33
2018-06-19T11:16:13.147Z,15.50
2018-06-19T11:18:42.902Z,15.03
2018-06-19T11:21:12.740Z,14.57
2018-06-19T11:23:42.738Z,14.37
2018-06-19T11:26:12.392Z,13.87
2018-06-19T11:28:42.353Z,14.90
2018-06-19T11:31:12.012Z,14.10
2018-06-19T11:33:41.711Z,14.73
2018-06-19T11:36:11.280Z,15.10
2018-06-19T11:38:40.800Z,14.73
2018-06-19T11:41:10.225Z,14.23
2018-06-19T11:43:40.267Z,13.90
2018-06-19T11:46:09.700Z,13.90
2018-06-19T11:48:39.267Z,17.17
2018-06-19T11:51:09.081Z,16.13
2018-06-19T11:53:38.940Z,15.83
2018-06-19T11:56:08.244Z,15.20
2018-06-19T11:58:37.610Z,15.60
2018-06-19T12:01:07.410Z,15.57
2018-06-19T12:03:36.704Z,13.43
2018-06-19T12:06:06.464Z,16.03
2018-06-19T12:08:35.864Z,15.90
2018-06-19T12:11:06.055Z,15.60
2018-06-19T12:13:39.877Z,13.73
2018-06-19T12:16:09.431Z,12.77
2018-06-19T12:18:39.211Z,11.73
2018-06-19T12:21:09.389Z,11.30
2018-06-19T12:23:39.460Z,11.77
2018-06-19T12:26:09.121Z,11.10
2018-06-19T12:28:38.732Z,12.77
2018-06-19T12:31:08.072Z,13.03
2018-06-19T12:33:37.782Z,12.50
2018-06-19T12:36:08.314Z,12.37
2018-06-19T12:38:38.350Z,13.43
2018-06-19T12:41:08.163Z,14.57
2018-06-19T12:43:37.865Z,13.87
2018-06-19T12:46:07.640Z,14.07
2018-06-19T12:48:36.907Z,12.93
2018-06-19T12:52:18.134Z,13.80
2018-06-19T12:55:28.222Z,13.30
2018-06-19T12:57:57.597Z,14.23
2018-06-19T13:00:27.678Z,13.53
2018-06-19T13:03:08.314Z,10.83
2018-06-19T13:05:48.906Z,10.80
2018-06-19T13:08:18.324Z,13.23
2018-06-19T13:10:48.037Z,12.90
2018-06-19T13:13:29.883Z,11.73
2018-06-19T13:15:59.809Z,10.47
2018-06-19T13:18:41.515Z,11.90
2018-06-19T13:21:11.327Z,10.50
2018-06-19T13:23:41.061Z,10.53
2018-06-19T13:26:10.801Z,11.27
2018-06-19T13:29:57.028Z,10.67
2018-06-19T13:32:26.856Z,10.60
2018-06-19T13:34:56.446Z,11.73
2018-06-19T13:37:26.129Z,13.17
2018-06-19T13:41:07.777Z,11.50
2018-06-19T13:43:48.508Z,11.10
2018-06-19T13:46:18.511Z,10.80
2018-06-19T13:48:48.263Z,11.37
2018-06-19T13:51:17.935Z,11.90
2018-06-19T13:53:47.375Z,10.83
2018-06-19T13:57:26.870Z,11.73
2018-06-19T13:59:57.358Z,9.90
2018-06-19T14:02:27.328Z,9.60
2018-06-19T14:04:57.357Z,10.10
2018-06-19T14:07:27.992Z,10.10
2018-06-19T14:11:11.407Z,10.03
2018-06-19T14:13:41.241Z,9.03
2018-06-19T14:16:10.932Z,9.83
2018-06-19T14:18:41.058Z,9.77
2018-06-19T14:21:10.564Z,10.03
2018-06-19T14:23:40.676Z,10.07
2018-06-19T14:26:11.122Z,8.73
2018-06-19T14:28:41.035Z,8.20
2018-06-19T14:31:10.640Z,9.37
2018-06-19T14:33:40.127Z,8.97
2018-06-19T14:36:09.472Z,8.90
2018-06-19T14:38:38.893Z,9.23
2018-06-19T14:41:08.897Z,8.67
2018-06-19T14:43:38.336Z,9.53
2018-06-19T14:46:07.631Z,8.97
2018-06-19T14:48:37.609Z,10.73
2018-06-19T14:51:07.345Z,9.07
2018-06-19T14:53:37.044Z,9.47
2018-06-19T14:56:07.067Z,8.47
2018-06-19T14:58:36.503Z,8.83
2018-06-19T15:01:06.454Z,10.53
2018-06-19T15:03:35.739Z,10.37
2018-06-19T15:06:05.338Z,10.20
2018-06-19T15:08:34.636Z,8.77
2018-06-19T15:11:04.025Z,9.70
2018-06-19T15:13:33.703Z,8.73
2018-06-19T15:16:03.485Z,7.87
2018-06-19T15:18:33.088Z,7.53
2018-06-19T15:21:03.042Z,7.30
2018-06-19T15:23:32.283Z,7.40
2018-06-19T15:26:02.873Z,7.73
2018-06-19T15:28:32.306Z,7.20
2018-06-19T15:31:02.018Z,8.53
2018-06-19T15:33:31.863Z,8.93
2018-06-19T15:36:01.589Z,9.60
2018-06-19T15:38:34.819Z,8.43
2018-06-19T15:41:04.219Z,7.40
2018-06-19T15:43:33.522Z,8.73
2018-06-19T15:46:02.906Z,7.73
2018-06-19T15:48:32.780Z,7.80
2018-06-19T15:51:02.291Z,7.60
2018-06-19T15:53:31.966Z,6.93
2018-06-19T15:56:01.616Z,7.80
2018-06-19T15:58:31.236Z,5.93
2018-06-19T16:01:01.155Z,7.47
2018-06-19T16:03:30.679Z,6.20
2018-06-19T16:06:00.162Z,6.30
2018-06-19T16:08:30.156Z,6.40
2018-06-19T16:10:59.894Z,6.73
2018-06-19T16:13:29.508Z,7.50
2018-06-19T16:15:59.168Z,6.77
2018-06-19T16:18:29.226Z,5.97
2018-06-19T16:20:58.889Z,6.90
2018-06-19T16:23:28.199Z,6.67
2018-06-19T16:25:57.920Z,6.80
2018-06-19T16:28:27.927Z,6.03
2018-06-19T16:30:57.695Z,6.40
2018-06-19T16:33:27.138Z,6.67
2018-06-19T16:35:57.320Z,6.80
2018-06-19T16:38:27.093Z,7.03
2018-06-19T16:40:56.473Z,7.20
2018-06-19T16:43:25.960Z,6.13
2018-06-19T16:45:55.504Z,7.87
2018-06-19T16:48:25.036Z,8.30
2018-06-19T16:50:54.654Z,8.20
2018-06-19T16:53:24.210Z,7.93
2018-06-19T16:55:54.381Z,7.77
2018-06-19T16:58:23.952Z,10.27
2018-06-19T17:00:53.380Z,10.67
2018-06-19T17:03:22.752Z,11.00
2018-06-19T17:05:52.217Z,9.07
2018-06-19T17:08:21.864Z,10.30
2018-06-19T17:10:51.559Z,9.07
2018-06-19T17:13:20.919Z,10.50
2018-06-19T17:15:50.380Z,10.53
2018-06-19T17:18:20.251Z,10.43
2018-06-19T17:20:49.529Z,12.53
2018-06-19T17:23:19.415Z,11.90
2018-06-19T17:25:49.375Z,10.33
2018-06-19T17:28:19.069Z,10.00
2018-06-19T17:30:49.297Z,9.90
2018-06-19T17:33:19.379Z,9.93
2018-06-19T17:35:49.228Z,10.60
2018-06-19T17:38:18.944Z,10.97
2018-06-19T17:40:48.707Z,10.53
2018-06-19T17:43:18.350Z,11.77
2018-06-19T17:45:47.772Z,9.53
2018-06-19T17:48:17.584Z,10.13
2018-06-19T17:50:47.072Z,10.30
2018-06-19T17:53:16.383Z,9.20
2018-06-19T17:55:45.831Z,10.97
2018-06-19T17:58:15.775Z,9.83
2018-06-19T18:00:45.195Z,11.23
2018-06-19T18:03:14.492Z,11.53
2018-06-19T18:05:44.201Z,10.43
2018-06-19T18:08:13.606Z,10.00
2018-06-19T18:10:43.584Z,10.37
2018-06-19T18:13:13.256Z,9.70
2018-06-19T18:15:42.791Z,10.20
2018-06-19T18:18:12.499Z,11.97
2018-06-19T18:20:42.207Z,12.00
2018-06-19T18:23:12.539Z,11.90
2018-06-19T18:25:42.590Z,10.23
2018-06-19T18:28:12.463Z,10.90
2018-06-19T18:30:42.440Z,12.87
2018-06-19T18:33:12.115Z,10.27
2018-06-19T18:35:42.070Z,12.30
2018-06-19T18:38:11.690Z,11.20
2018-06-19T18:40:41.668Z,11.17
2018-06-19T18:43:11.033Z,11.47
2018-06-19T18:45:40.611Z,10.80
2018-06-19T18:48:10.017Z,10.93
2018-06-19T18:50:39.759Z,10.67
2018-06-19T18:53:09.425Z,11.03
2018-06-19T18:55:39.091Z,11.80
2018-06-19T18:58:08.460Z,11.37
2018-06-19T19:00:37.886Z,11.27
2018-06-19T19:03:07.665Z,11.67
2018-06-19T19:05:37.600Z,12.00
2018-06-19T19:08:06.936Z,14.13
2018-06-19T19:10:53.641Z,11.80
2018-06-19T19:13:24.034Z,12.63
2018-06-19T19:15:58.580Z,13.60
2018-06-19T19:18:33.946Z,14.30
2018-06-19T19:21:03.799Z,18.43
2018-06-19T19:23:33.138Z,16.83
2018-06-19T19:26:02.712Z,17.20
2018-06-19T19:28:37.347Z,16.80
2018-06-19T19:31:06.978Z,16.77
2018-06-19T19:33:36.302Z,16.57
2018-06-19T19:36:06.136Z,18.00
2018-06-19T19:38:41.060Z,18.27
2018-06-19T19:41:10.821Z,17.17
2018-06-19T19:43:40.623Z,16.30
2018-06-19T19:46:14.082Z,16.27
2018-06-19T19:48:48.580Z,15.87
2018-06-19T19:51:17.976Z,15.80
2018-06-19T19:53:47.809Z,15.10
2018-06-19T19:56:22.448Z,16.07
2018-06-19T19:58:53.149Z,14.90
2018-06-19T20:01:23.369Z,15.77
2018-06-19T20:03:53.212Z,15.87
2018-06-19T20:06:22.903Z,15.73
2018-06-19T20:08:52.821Z,15.97
2018-06-19T20:11:22.215Z,15.90
2018-06-19T20:13:51.757Z,16.83
2018-06-19T20:16:21.302Z,16.17
2018-06-19T20:18:50.924Z,16.57
2018-06-19T20:21:20.579Z,16.50
2018-06-19T20:23:50.188Z,15.80
2018-06-19T20:26:19.813Z,15.60
2018-06-19T20:28:49.979Z,15.00
2018-06-19T20:31:19.345Z,15.80
2018-06-19T20:33:48.696Z,15.23
2018-06-19T20:36:19.596Z,16.00
2018-06-19T20:38:49.700Z,14.97
2018-06-19T20:41:18.962Z,15.10
2018-06-19T20:43:48.270Z,15.37
2018-06-19T20:46:17.588Z,16.50
2018-06-19T20:48:47.383Z,15.93
2018-06-19T20:51:16.743Z,15.90
2018-06-19T20:53:46.483Z,15.13
2018-06-19T20:56:15.850Z,16.40
2018-06-19T20:58:46.474Z,15.70
2018-06-19T21:01:16.816Z,16.40
2018-06-19T21:03:46.056Z,16.37
2018-06-19T21:06:15.679Z,14.97
2018-06-19T21:08:45.868Z,14.37
2018-06-19T21:11:15.718Z,15.60
2018-06-19T21:13:45.309Z,14.90
2018-06-19T21:16:15.210Z,15.10
2018-06-19T21:18:44.722Z,15.23
2018-06-19T21:21:14.546Z,15.53
2018-06-19T21:23:43.955Z,15.33
2018-06-19T21:26:13.426Z,15.87
2018-06-19T21:28:43.277Z,16.50
2018-06-19T21:31:13.262Z,15.90
2018-06-19T21:33:43.157Z,15.90
2018-06-19T21:36:12.577Z,16.43
2018-06-19T21:38:42.535Z,15.43
2018-06-19T21:41:12.805Z,14.53
2018-06-19T21:43:42.142Z,15.67
2018-06-19T21:46:11.882Z,15.80
2018-06-19T21:48:41.461Z,15.40
2018-06-19T21:51:11.019Z,15.53
2018-06-19T21:53:40.525Z,16.50
2018-06-19T21:56:10.217Z,16.10
2018-06-19T21:58:39.953Z,19.00
2018-06-19T22:01:09.767Z,17.50
2018-06-19T22:03:40.424Z,16.60
2018-06-19T22:06:10.777Z,15.97
2018-06-19T22:08:44.362Z,16.00
2018-06-19T22:11:15.464Z,16.10
2018-06-19T22:13:45.874Z,15.63
2018-06-19T22:16:17.950Z,15.93
2018-06-19T22:18:48.104Z,15.90
2018-06-19T22:21:17.936Z,15.10
2018-06-19T22:23:47.261Z,15.10
2018-06-19T22:26:16.849Z,15.53
2018-06-19T22:28:46.278Z,15.23
2018-06-19T22:31:16.531Z,15.20
2018-06-19T22:33:46.199Z,15.43
2018-06-19T22:36:15.572Z,14.97
2018-06-19T22:38:44.850Z,15.07
2018-06-19T22:41:14.556Z,15.97
2018-06-19T22:43:43.971Z,15.07
2018-06-19T22:46:13.398Z,14.47
2018-06-19T22:48:43.130Z,14.57
2018-06-19T22:51:12.842Z,15.20
2018-06-19T22:53:42.503Z,15.27
2018-06-19T22:56:11.952Z,15.37
2018-06-19T22:58:41.183Z,15.47
2018-06-19T23:01:10.909Z,15.63
2018-06-19T23:03:40.261Z,14.90
2018-06-19T23:06:10.029Z,14.97
2018-06-19T23:08:40.338Z,14.73
2018-06-19T23:11:09.853Z,15.10
2018-06-19T23:13:39.321Z,15.57
2018-06-19T23:16:09.066Z,14.57
2018-06-19T23:18:39.246Z,16.23
2018-06-19T23:21:08.523Z,15.90
2018-06-19T23:23:38.115Z,15.87
2018-06-19T23:26:08.138Z,15.57
2018-06-19T23:28:37.834Z,15.10
2018-06-19T23:31:07.449Z,16.07
2018-06-19T23:33:36.798Z,15.93
2018-06-19T23:36:06.326Z,15.77
2018-06-19T23:38:36.337Z,15.50
2018-06-19T23:41:06.822Z,15.37
2018-06-19T23:43:36.261Z,16.00
2018-06-19T23:46:06.036Z,14.73
2018-06-19T23:48:35.438Z,16.37
2018-06-19T23:51:05.257Z,16.00
2018-06-19T23:53:35.205Z,16.40
2018-06-19T23:56:04.964Z,16.70
2018-06-19T23:58:34.344Z,15.93
